createdAt,value
2022-11-26T00:10:35.923Z,5.47
2022-11-26T00:25:48.172Z,6.37
2022-11-26T00:40:52.861Z,5.80
2022-11-26T00:55:57.391Z,7.43
2022-11-26T01:11:03.207Z,7.83
2022-11-26T01:26:16.522Z,7.00
2022-11-26T01:41:26.106Z,5.70
2022-11-26T01:56:39.908Z,6.17
2022-11-26T02:11:44.655Z,7.40
2022-11-26T02:27:02.128Z,6.43
2022-11-26T02:42:23.373Z,6.47
2022-11-26T02:57:30.138Z,8.10
2022-11-26T03:12:34.564Z,7.13
2022-11-26T03:27:38.906Z,8.97
2022-11-26T03:42:43.927Z,10.33
2022-11-26T03:57:48.704Z,10.30
2022-11-26T04:12:53.207Z,9.27
2022-11-26T04:27:57.496Z,8.73
2022-11-26T04:43:01.884Z,10.30
2022-11-26T04:58:06.033Z,10.50
2022-11-26T05:13:10.328Z,11.33
2022-11-26T05:28:15.037Z,9.17
2022-11-26T05:43:19.324Z,11.50
2022-11-26T05:58:23.710Z,10.83
2022-11-26T06:13:28.088Z,9.40
2022-11-26T06:28:32.347Z,13.83
2022-11-26T06:43:36.712Z,13.40
2022-11-26T06:58:41.213Z,12.17
2022-11-26T07:13:45.464Z,10.63
2022-11-26T07:28:50.090Z,13.30
2022-11-26T07:43:54.635Z,11.63
2022-11-26T07:58:59.529Z,11.83
2022-11-26T08:14:05.503Z,12.20
2022-11-26T08:29:09.782Z,11.63
2022-11-26T08:44:13.944Z,10.20
2022-11-26T08:59:20.604Z,9.10
2022-11-26T09:14:26.693Z,9.73
2022-11-26T09:29:30.967Z,13.63
2022-11-26T09:44:51.254Z,13.37
2022-11-26T09:59:56.721Z,12.50
2022-11-26T10:15:09.931Z,12.63
2022-11-26T10:30:25.462Z,14.90
2022-11-26T10:45:40.160Z,13.93
2022-11-26T11:00:50.133Z,12.13
2022-11-26T11:16:03.620Z,11.47
2022-11-26T11:31:12.776Z,16.03
2022-11-26T11:46:28.092Z,13.30
2022-11-26T12:01:51.097Z,9.40
2022-11-26T12:16:58.464Z,10.70
2022-11-26T12:32:12.860Z,9.00
2022-11-26T12:47:35.273Z,11.27
2022-11-26T13:02:43.097Z,8.87
2022-11-26T13:17:50.741Z,12.27
2022-11-26T13:33:07.930Z,10.60
2022-11-26T13:48:21.464Z,10.90
2022-11-26T14:03:46.298Z,16.90
2022-11-26T14:18:51.286Z,16.87
2022-11-26T14:33:58.880Z,18.93
2022-11-26T14:49:05.050Z,14.87
2022-11-26T15:04:09.222Z,16.00
2022-11-26T15:19:15.878Z,10.73
2022-11-26T15:34:20.330Z,22.93
2022-11-26T15:49:27.775Z,14.70
2022-11-26T16:04:34.525Z,22.10
2022-11-26T16:19:43.014Z,20.93
2022-11-26T16:34:47.467Z,19.30
2022-11-26T16:49:52.388Z,31.40
2022-11-26T17:04:56.890Z,32.53
2022-11-26T17:20:01.234Z,25.80
2022-11-26T17:35:06.115Z,24.17
2022-11-26T17:50:17.694Z,20.73
2022-11-26T18:05:22.429Z,25.63
2022-11-26T18:20:28.181Z,26.03
2022-11-26T18:35:33.008Z,24.80
2022-11-26T18:50:38.857Z,29.30
2022-11-26T19:05:46.621Z,26.10
2022-11-26T19:20:51.696Z,26.60
2022-11-26T19:35:56.445Z,25.87
2022-11-26T19:51:01.260Z,25.30
2022-11-26T20:06:06.889Z,22.80
2022-11-26T20:21:13.730Z,25.23
2022-11-26T20:36:21.277Z,22.17
2022-11-26T20:51:25.717Z,29.00
2022-11-26T21:06:37.952Z,28.43
2022-11-26T21:21:42.718Z,26.93
2022-11-26T21:36:46.823Z,28.10
2022-11-26T21:51:50.944Z,23.73
2022-11-26T22:06:55.147Z,20.20
2022-11-26T22:22:00.646Z,24.10
2022-11-26T22:37:05.001Z,26.40
2022-11-26T22:52:09.746Z,29.77
2022-11-26T23:07:14.038Z,36.70
2022-11-26T23:22:18.246Z,33.50
2022-11-26T23:37:22.520Z,25.83
2022-11-26T23:52:27.887Z,25.77
